Time;durP1;ratioP1;P1;durP2;ratioP2;P2;SDS_P1;SDS_P2;PMS_P1;PMS_P2;Temp;Humidity;BMP_temperature;BMP_pressure;BME280_temperature;BME280_humidity;BME280_pressure;Samples;Min_cycle;Max_cycle;Signal;HPM_P1;HPM_P2
2024/02/08 00:01:54;;;;;;;9.90;5.93;;;4.10;99.90;;;;;;4977292;28;20051;-82
2024/02/08 00:04:19;;;;;;;10.25;6.03;;;4.10;99.90;;;;;;4977168;28;20029;-82
2024/02/08 00:06:45;;;;;;;10.55;5.85;;;4.10;99.90;;;;;;4994895;28;20109;-81
2024/02/08 00:09:10;;;;;;;9.90;6.30;;;4.10;99.90;;;;;;4961472;28;20041;-82
2024/02/08 00:11:36;;;;;;;9.90;6.15;;;4.10;99.90;;;;;;4983808;28;20018;-82
2024/02/08 00:14:02;;;;;;;13.38;6.50;;;4.10;99.90;;;;;;5018295;28;20024;-81
2024/02/08 00:16:31;;;;;;;12.35;6.53;;;4.10;99.90;;;;;;4985588;28;20061;-82
2024/02/08 00:18:56;;;;;;;12.65;6.22;;;4.10;99.90;;;;;;5001266;28;20504;-81
2024/02/08 00:21:22;;;;;;;11.68;6.32;;;4.10;99.90;;;;;;4984171;28;20030;-81
2024/02/08 00:23:47;;;;;;;17.15;7.50;;;4.10;99.90;;;;;;4963784;28;20026;-82
2024/02/08 00:26:14;;;;;;;15.00;6.70;;;4.10;99.90;;;;;;4977524;28;20109;-81
2024/02/08 00:28:39;;;;;;;13.00;6.63;;;4.10;99.90;;;;;;4961056;28;20481;-81
2024/02/08 00:31:06;;;;;;;14.15;6.90;;;4.10;99.90;;;;;;4994397;28;20031;-81
2024/02/08 00:33:33;;;;;;;14.10;5.95;;;4.10;99.90;;;;;;4994697;28;20042;-81
2024/02/08 00:36:02;;;;;;;9.75;6.00;;;4.10;99.90;;;;;;4961194;28;20482;-81
2024/02/08 00:38:30;;;;;;;15.88;6.57;;;4.10;99.90;;;;;;4961845;28;20035;-82
2024/02/08 00:40:56;;;;;;;10.27;5.65;;;4.00;99.90;;;;;;4977861;28;20081;-81
2024/02/08 00:43:22;;;;;;;11.77;5.63;;;4.10;99.90;;;;;;4981246;28;20027;-80
2024/02/08 00:45:48;;;;;;;10.48;5.55;;;4.10;99.90;;;;;;4999334;28;20030;-82
2024/02/08 00:48:13;;;;;;;10.73;5.60;;;4.10;99.90;;;;;;4964564;28;20034;-81
2024/02/08 00:50:39;;;;;;;10.85;5.13;;;4.10;99.90;;;;;;4977862;28;20018;-81
2024/02/08 00:53:05;;;;;;;9.93;5.75;;;4.10;99.90;;;;;;4944137;28;20031;-81
2024/02/08 00:55:34;;;;;;;12.25;5.97;;;4.20;99.90;;;;;;4961144;28;20125;-82
2024/02/08 00:58:02;;;;;;;14.98;5.65;;;4.20;99.90;;;;;;4994223;28;20065;-81
2024/02/08 01:00:37;;;;;;;12.43;5.82;;;4.30;99.90;;;;;;4976944;28;20026;-80
2024/02/08 01:03:07;;;;;;;9.10;5.38;;;4.20;99.90;;;;;;4962445;28;20030;-81
2024/02/08 01:05:32;;;;;;;11.98;6.13;;;4.30;99.90;;;;;;4976676;28;20067;-82
2024/02/08 01:08:00;;;;;;;11.68;5.50;;;4.30;99.90;;;;;;4994552;28;20035;-82
2024/02/08 01:10:26;;;;;;;12.48;6.55;;;4.30;99.90;;;;;;4980359;28;20421;-81
2024/02/08 01:12:53;;;;;;;8.80;5.07;;;4.30;99.90;;;;;;4964053;28;20430;-81
2024/02/08 01:15:19;;;;;;;11.23;5.65;;;4.30;99.90;;;;;;4997559;28;20537;-82
2024/02/08 01:17:45;;;;;;;8.52;5.20;;;4.30;99.90;;;;;;4964291;28;20478;-81
2024/02/08 01:20:11;;;;;;;10.23;4.72;;;4.30;99.90;;;;;;4980050;28;20036;-81
2024/02/08 01:22:37;;;;;;;9.80;5.20;;;4.30;99.90;;;;;;4964129;28;20031;-81
2024/02/08 01:25:03;;;;;;;10.95;5.20;;;4.20;99.90;;;;;;4979925;28;20085;-82
2024/02/08 01:27:29;;;;;;;9.65;4.63;;;4.30;99.90;;;;;;4980228;28;20069;-82
2024/02/08 01:29:59;;;;;;;11.82;5.15;;;4.30;99.90;;;;;;4980213;28;20057;-81
2024/02/08 01:32:27;;;;;;;11.50;4.82;;;4.30;99.90;;;;;;4985152;28;20041;-80
2024/02/08 01:34:54;;;;;;;11.93;5.43;;;4.30;99.90;;;;;;5004317;28;20018;-83
2024/02/08 01:37:20;;;;;;;11.15;5.47;;;4.30;99.90;;;;;;4987907;28;20019;-83
2024/02/08 01:39:45;;;;;;;12.23;5.95;;;4.30;99.90;;;;;;4987854;28;20023;-81
2024/02/08 01:42:15;;;;;;;10.55;5.35;;;4.30;99.90;;;;;;4983830;28;20117;-82
2024/02/08 01:44:45;;;;;;;9.27;5.13;;;4.30;99.90;;;;;;4964172;28;20125;-82
2024/02/08 01:47:12;;;;;;;8.85;4.68;;;4.30;99.90;;;;;;4997826;28;20045;-81
2024/02/08 01:49:38;;;;;;;12.75;5.53;;;4.30;99.90;;;;;;4979859;28;20124;-81
2024/02/08 01:52:04;;;;;;;13.60;5.70;;;4.30;99.90;;;;;;4996911;28;20030;-82
2024/02/08 01:54:30;;;;;;;10.20;5.93;;;4.30;99.90;;;;;;4963237;28;20092;-82
2024/02/08 01:57:03;;;;;;;12.70;6.05;;;4.30;99.90;;;;;;4979143;28;20088;-82
2024/02/08 01:59:31;;;;;;;14.45;5.38;;;4.30;99.90;;;;;;4980036;28;20106;-82
2024/02/08 02:02:01;;;;;;;9.85;5.40;;;4.30;99.90;;;;;;4961947;28;20130;-82
2024/02/08 02:04:30;;;;;;;11.25;5.22;;;4.30;99.90;;;;;;4996263;28;20037;-81
2024/02/08 02:07:00;;;;;;;9.88;4.65;;;4.30;99.90;;;;;;4978922;28;20032;-81
2024/02/08 02:09:27;;;;;;;12.10;4.93;;;4.30;99.90;;;;;;4979420;28;20174;-82
2024/02/08 02:12:15;;;;;;;10.73;4.80;;;4.30;99.90;;;;;;4978492;28;20129;-81
2024/02/08 02:14:41;;;;;;;16.40;5.88;;;4.30;99.90;;;;;;4995672;28;20023;-82
2024/02/08 02:17:13;;;;;;;10.82;4.80;;;4.30;99.90;;;;;;4962940;28;20034;-82
2024/02/08 02:19:39;;;;;;;11.20;5.25;;;4.30;99.90;;;;;;4978493;28;20484;-82
2024/02/08 02:22:09;;;;;;;11.55;5.45;;;4.30;99.90;;;;;;4962595;28;20065;-82
2024/02/08 02:24:36;;;;;;;9.93;5.00;;;4.30;99.90;;;;;;4962757;28;20027;-82
2024/02/08 02:27:06;;;;;;;9.82;4.78;;;4.30;99.90;;;;;;4962447;28;20037;-82
2024/02/08 02:29:33;;;;;;;11.13;5.30;;;4.30;99.90;;;;;;4978148;28;20022;-83
2024/02/08 02:32:00;;;;;;;11.75;5.20;;;4.30;99.90;;;;;;4995860;28;20026;-82
2024/02/08 02:34:30;;;;;;;9.50;5.22;;;4.30;99.90;;;;;;4996033;28;20171;-82
2024/02/08 02:36:58;;;;;;;9.30;4.90;;;4.30;99.90;;;;;;4978393;28;20100;-82
2024/02/08 02:39:27;;;;;;;9.00;4.50;;;4.30;99.90;;;;;;4995763;28;20144;-82
2024/02/08 02:41:53;;;;;;;12.07;4.78;;;4.30;99.90;;;;;;4978314;28;20022;-82
2024/02/08 02:44:20;;;;;;;8.13;3.95;;;4.30;99.90;;;;;;4962173;28;20033;-82
2024/02/08 02:46:46;;;;;;;7.68;4.70;;;4.40;99.90;;;;;;4962720;28;20034;-82
2024/02/08 02:49:12;;;;;;;7.70;4.00;;;4.40;99.90;;;;;;4978883;28;20032;-82
2024/02/08 02:51:37;;;;;;;7.25;4.10;;;4.40;99.90;;;;;;4979834;28;20034;-80
2024/02/08 02:54:03;;;;;;;9.60;4.93;;;4.40;99.90;;;;;;4980812;28;20010;-81
2024/02/08 02:56:29;;;;;;;10.10;4.60;;;4.40;99.90;;;;;;5019109;28;20030;-81
2024/02/08 02:58:55;;;;;;;10.45;4.45;;;4.50;99.90;;;;;;4986493;28;20030;-81
2024/02/08 03:01:21;;;;;;;9.57;4.57;;;4.50;99.90;;;;;;5001063;28;20042;-82
2024/02/08 03:03:47;;;;;;;9.25;4.60;;;4.50;99.90;;;;;;4963738;28;20049;-82
2024/02/08 03:06:13;;;;;;;7.07;4.10;;;4.50;99.90;;;;;;4978860;28;20027;-82
2024/02/08 03:08:43;;;;;;;11.18;4.85;;;4.50;99.90;;;;;;4978193;28;20467;-81
2024/02/08 03:11:11;;;;;;;9.82;4.32;;;4.50;99.90;;;;;;4977960;28;20038;-81
2024/02/08 03:13:49;;;;;;;6.72;3.72;;;4.50;99.90;;;;;;4977953;28;20026;-82
2024/02/08 03:16:14;;;;;;;7.88;3.45;;;4.50;99.90;;;;;;4962480;28;20405;-81
2024/02/08 03:18:48;;;;;;;8.38;3.80;;;4.50;99.90;;;;;;4961952;28;20031;-82
2024/02/08 03:21:21;;;;;;;7.80;4.18;;;4.50;99.90;;;;;;4977823;28;20041;-82
2024/02/08 03:23:48;;;;;;;10.68;4.32;;;4.50;99.90;;;;;;4962988;28;20494;-82
2024/02/08 03:26:15;;;;;;;10.55;4.32;;;4.50;99.90;;;;;;4995590;28;20046;-82
2024/02/08 03:28:45;;;;;;;6.93;4.07;;;4.50;99.90;;;;;;4994831;28;20026;-81
2024/02/08 03:31:14;;;;;;;9.50;3.80;;;4.50;99.90;;;;;;4979475;28;20030;-81
2024/02/08 03:33:40;;;;;;;7.63;3.58;;;4.50;99.90;;;;;;4965304;28;20470;-80
2024/02/08 03:36:08;;;;;;;8.32;3.90;;;4.50;99.90;;;;;;4980728;28;20037;-82
2024/02/08 03:38:34;;;;;;;7.90;4.30;;;4.50;99.90;;;;;;4979793;28;20044;-81
2024/02/08 03:41:03;;;;;;;9.30;3.70;;;4.60;99.90;;;;;;4978336;28;20105;-82
2024/02/08 03:43:29;;;;;;;6.30;3.40;;;4.60;99.90;;;;;;4977750;28;20030;-81
2024/02/08 03:45:55;;;;;;;7.07;4.22;;;4.50;99.90;;;;;;4977801;28;20206;-82
2024/02/08 03:48:23;;;;;;;8.43;4.20;;;4.50;99.90;;;;;;4994846;28;20097;-81
2024/02/08 03:50:52;;;;;;;8.93;3.92;;;4.60;99.90;;;;;;4977263;28;20058;-81
2024/02/08 03:53:20;;;;;;;8.00;4.03;;;4.60;99.90;;;;;;4961847;28;20026;-81
2024/02/08 03:55:47;;;;;;;7.05;3.95;;;4.60;99.90;;;;;;4961533;28;20126;-82
2024/02/08 03:58:17;;;;;;;7.50;3.97;;;4.60;99.90;;;;;;4977554;28;20027;-82
2024/02/08 04:00:46;;;;;;;6.57;3.83;;;4.60;99.90;;;;;;4977271;28;20509;-82
2024/02/08 04:03:33;;;;;;;7.28;4.07;;;4.60;99.90;;;;;;4977315;28;20272;-81
2024/02/08 04:05:59;;;;;;;6.70;3.50;;;4.60;99.90;;;;;;4964169;28;20385;-82
2024/02/08 04:54:36;;;;;;;8.18;3.30;;;4.70;99.90;;;;;;4998209;28;20049;-82
2024/02/08 04:57:03;;;;;;;12.27;4.15;;;4.70;99.90;;;;;;4964769;28;20030;-82
2024/02/08 04:59:32;;;;;;;10.15;4.10;;;4.70;99.90;;;;;;4964613;28;20037;-83
2024/02/08 05:01:58;;;;;;;11.82;4.70;;;4.80;99.90;;;;;;4981042;28;20490;-82
2024/02/08 05:04:23;;;;;;;11.88;4.20;;;4.70;99.90;;;;;;4964285;28;20081;-82
2024/02/08 05:06:49;;;;;;;10.27;4.68;;;4.70;99.90;;;;;;4980809;28;20070;-82
2024/02/08 05:09:24;;;;;;;8.68;4.55;;;4.70;99.90;;;;;;4964357;28;20537;-83
2024/02/08 05:11:50;;;;;;;11.40;4.65;;;4.70;99.90;;;;;;4965283;28;20462;-82
2024/02/08 05:14:19;;;;;;;11.35;5.03;;;4.70;99.90;;;;;;4963751;28;20046;-82
2024/02/08 05:16:45;;;;;;;12.48;5.47;;;4.80;99.90;;;;;;4980357;28;20398;-82
2024/02/08 05:19:10;;;;;;;11.85;5.40;;;4.80;99.90;;;;;;4997365;28;20037;-82
2024/02/08 05:21:41;;;;;;;12.10;5.43;;;4.70;99.90;;;;;;4980163;28;20026;-81
2024/02/08 05:24:12;;;;;;;11.55;6.13;;;4.70;99.90;;;;;;4980492;28;20454;-81
2024/02/08 05:26:40;;;;;;;10.18;5.55;;;4.70;99.90;;;;;;4980137;28;20116;-81
2024/02/08 05:29:08;;;;;;;10.77;5.78;;;4.60;99.90;;;;;;4964165;28;20027;-81
2024/02/08 05:31:39;;;;;;;14.75;5.93;;;4.60;99.90;;;;;;4980196;28;20030;-81
2024/02/08 05:34:10;;;;;;;11.38;6.05;;;4.60;99.90;;;;;;4980437;28;20019;-82
2024/02/08 05:36:39;;;;;;;;;;;4.50;99.90;;;;;;4974792;28;20093;-79
2024/02/08 05:39:05;;;;;;;13.68;5.57;;;4.50;99.90;;;;;;5004581;28;19906;-81
2024/02/08 05:41:33;;;;;;;10.30;5.53;;;4.50;99.90;;;;;;4987194;28;20022;-80
2024/02/08 05:44:05;;;;;;;10.07;5.60;;;4.50;99.90;;;;;;5002899;28;20030;-84
2024/02/08 05:46:37;;;;;;;11.73;6.10;;;4.50;99.90;;;;;;4981241;28;20034;-83
2024/02/08 05:49:04;;;;;;;17.67;6.50;;;4.50;99.90;;;;;;4964388;28;20034;-84
2024/02/08 05:51:32;;;;;;;9.52;5.65;;;4.40;99.90;;;;;;4979818;28;20110;-85
2024/02/08 05:54:06;;;;;;;11.15;6.25;;;4.40;99.90;;;;;;4978979;28;20029;-85
2024/02/08 05:56:39;;;;;;;20.83;6.43;;;4.40;99.90;;;;;;4979278;28;20057;-85
2024/02/08 05:59:05;;;;;;;11.48;6.18;;;4.40;99.90;;;;;;4980615;28;20050;-83
2024/02/08 06:01:36;;;;;;;12.60;5.45;;;4.50;99.90;;;;;;4996843;28;20054;-83
2024/02/08 06:04:03;;;;;;;15.27;6.18;;;4.50;99.90;;;;;;4980475;28;20037;-84
2024/02/08 06:06:38;;;;;;;11.07;5.47;;;4.50;99.90;;;;;;4979331;28;20029;-84
2024/02/08 06:09:33;;;;;;;14.48;6.55;;;4.50;99.90;;;;;;4979418;28;20470;-84
2024/02/08 06:12:08;;;;;;;12.05;5.55;;;4.50;99.90;;;;;;4982203;28;20039;-83
2024/02/08 06:14:42;;;;;;;12.52;6.47;;;4.60;99.90;;;;;;4996826;28;20459;-83
2024/02/08 06:17:11;;;;;;;15.48;6.00;;;4.50;99.90;;;;;;4964145;28;20466;-83
2024/02/08 06:19:50;;;;;;;14.15;6.55;;;4.60;99.90;;;;;;5000151;28;20038;-82
2024/02/08 06:22:20;;;;;;;11.48;6.30;;;4.50;99.90;;;;;;4983476;28;20042;-83
2024/02/08 06:25:36;;;;;;;12.43;6.80;;;4.60;99.90;;;;;;4965656;28;20129;-83
2024/02/08 06:27:50;;;;;;;12.00;6.30;;;4.50;99.90;;;;;;4992601;28;20367;-84
2024/02/08 06:30:22;;;;;;;16.17;6.88;;;4.60;99.90;;;;;;4978618;28;20040;-83
2024/02/08 06:32:57;;;;;;;13.40;6.88;;;4.60;99.90;;;;;;4996281;28;20026;-83
2024/02/08 06:35:28;;;;;;;10.70;6.10;;;4.50;99.90;;;;;;4963942;28;20549;-83
2024/02/08 06:38:00;;;;;;;12.07;6.18;;;4.50;99.90;;;;;;4978638;28;20038;-83
2024/02/08 07:37:37;;;;;;;17.95;8.18;;;4.60;99.90;;;;;;4980462;28;20080;-83
2024/02/08 07:40:23;;;;;;;17.02;7.55;;;4.60;99.90;;;;;;4961869;28;20030;-84
2024/02/08 07:43:43;;;;;;;14.63;6.88;;;4.60;99.90;;;;;;4962601;28;20026;-82
2024/02/08 07:45:46;;;;;;;17.05;7.97;;;4.50;99.90;;;;;;4986098;28;20387;-83
2024/02/08 07:51:03;;;;;;;14.80;7.05;;;4.50;99.90;;;;;;4966697;28;20080;-83
2024/02/08 07:54:20;;;;;;;14.20;6.68;;;4.60;99.90;;;;;;4977351;28;20058;-83
2024/02/08 07:59:06;;;;;;;15.45;7.35;;;4.60;99.90;;;;;;4963965;28;20544;-82
2024/02/08 08:01:32;;;;;;;17.17;7.63;;;4.60;99.90;;;;;;4959955;28;20050;-83
2024/02/08 08:04:01;;;;;;;17.20;7.60;;;4.60;99.90;;;;;;4957870;28;20039;-83
2024/02/08 08:06:46;;;;;;;20.38;7.28;;;4.60;99.90;;;;;;4973816;28;20027;-84
2024/02/08 08:09:21;;;;;;;14.07;7.03;;;4.70;99.90;;;;;;4974631;28;20030;-83
2024/02/08 08:11:47;;;;;;;15.73;6.47;;;4.70;99.90;;;;;;4974551;28;20027;-83
2024/02/08 08:15:04;;;;;;;13.20;6.43;;;4.70;99.90;;;;;;4975599;28;20097;-83
2024/02/08 08:17:08;;;;;;;20.38;7.55;;;4.80;99.90;;;;;;4976499;28;20101;-84
2024/02/08 08:19:44;;;;;;;18.67;6.88;;;4.80;99.90;;;;;;4970698;28;20015;-82
2024/02/08 08:27:47;;;;;;;15.13;6.10;;;4.90;99.90;;;;;;4991594;28;20050;-83
2024/02/08 08:30:27;;;;;;;13.38;6.18;;;5.00;99.90;;;;;;4978597;28;20198;-83
2024/02/08 08:33:07;;;;;;;15.13;7.35;;;5.00;99.90;;;;;;4977676;28;20507;-83
2024/02/08 08:35:53;;;;;;;17.00;6.80;;;5.10;99.90;;;;;;4964075;28;20138;-83
2024/02/08 08:41:04;;;;;;;13.73;7.38;;;5.20;99.90;;;;;;4961840;28;20065;-83
2024/02/08 08:43:34;;;;;;;19.88;6.90;;;5.20;99.90;;;;;;4977941;28;20023;-84
2024/02/08 08:46:00;;;;;;;14.90;6.00;;;5.10;99.90;;;;;;4977786;28;20043;-82
2024/02/08 08:48:30;;;;;;;14.20;6.00;;;5.20;99.90;;;;;;4977379;28;20604;-84
2024/02/08 08:50:57;;;;;;;16.17;6.83;;;5.20;99.90;;;;;;4977524;28;20030;-81
2024/02/08 08:53:47;;;;;;;13.40;6.55;;;5.20;99.90;;;;;;4977419;28;20274;-83
2024/02/08 08:56:13;;;;;;;11.77;6.05;;;5.30;99.90;;;;;;4977110;28;20045;-83
2024/02/08 08:58:48;;;;;;;17.67;6.25;;;5.30;99.90;;;;;;4961503;28;20424;-84
2024/02/08 09:01:22;;;;;;;12.85;6.45;;;5.30;99.90;;;;;;4977575;28;20082;-83
2024/02/08 09:03:55;;;;;;;12.82;5.80;;;5.40;99.90;;;;;;4980260;28;20065;-83
2024/02/08 09:06:27;;;;;;;13.82;6.25;;;5.40;99.90;;;;;;4966574;28;20102;-82
2024/02/08 09:08:56;;;;;;;15.38;6.28;;;5.40;99.90;;;;;;4981397;28;20062;-82
2024/02/08 09:11:26;;;;;;;11.25;6.32;;;5.40;99.90;;;;;;4980903;28;20423;-83
2024/02/08 09:13:55;;;;;;;15.40;6.78;;;5.40;99.90;;;;;;4979156;28;20165;-83
2024/02/08 09:21:32;;;;;;;12.85;6.25;;;5.60;99.90;;;;;;4978414;28;20035;-83
2024/02/08 09:24:03;;;;;;;15.32;7.13;;;5.60;99.90;;;;;;4978224;28;20023;-83
2024/02/08 09:26:49;;;;;;;16.65;6.70;;;5.60;99.90;;;;;;4977435;28;20066;-83
2024/02/08 09:29:23;;;;;;;14.90;6.57;;;5.60;99.90;;;;;;4976585;28;20537;-83
2024/02/08 09:31:50;;;;;;;14.20;6.05;;;5.60;99.90;;;;;;4977402;28;20579;-83
2024/02/08 09:34:16;;;;;;;11.85;5.20;;;5.60;99.90;;;;;;4961308;28;20035;-84
2024/02/08 09:36:46;;;;;;;13.48;6.35;;;5.60;99.90;;;;;;4978707;28;20139;-82
2024/02/08 09:39:19;;;;;;;13.50;6.32;;;5.70;99.90;;;;;;4963317;28;20034;-83
2024/02/08 09:41:45;;;;;;;12.48;6.22;;;5.70;99.90;;;;;;4994918;28;20030;-82
2024/02/08 09:44:14;;;;;;;14.02;6.18;;;5.70;99.90;;;;;;5000901;28;20046;-81
2024/02/08 09:49:17;;;;;;;14.20;6.65;;;5.90;99.90;;;;;;4996932;28;20043;-82
2024/02/08 09:51:55;;;;;;;14.90;7.30;;;5.90;99.90;;;;;;4976461;28;20031;-83
2024/02/08 09:54:33;;;;;;;20.63;7.40;;;5.80;99.90;;;;;;4976707;28;20030;-83
2024/02/08 09:57:22;;;;;;;15.45;6.93;;;5.80;99.90;;;;;;4976643;28;20043;-83
2024/02/08 10:00:07;;;;;;;16.30;7.22;;;5.80;99.90;;;;;;4976664;28;20039;-84
2024/02/08 10:02:33;;;;;;;14.20;6.78;;;5.70;99.90;;;;;;4976148;28;20486;-82
2024/02/08 10:05:19;;;;;;;12.85;7.60;;;5.70;99.90;;;;;;4976374;28;20030;-84
2024/02/08 10:08:09;;;;;;;19.80;7.85;;;5.70;99.90;;;;;;4976797;28;20105;-82
2024/02/08 10:10:43;;;;;;;15.60;6.28;;;5.70;99.90;;;;;;4976570;28;20038;-84
2024/02/08 10:13:40;;;;;;;18.30;7.60;;;5.70;99.90;;;;;;4977696;28;20023;-83
2024/02/08 10:16:13;;;;;;;16.20;7.68;;;5.70;99.90;;;;;;4976011;28;20061;-84
2024/02/08 10:18:39;;;;;;;16.13;7.47;;;5.70;99.90;;;;;;4977503;28;20142;-83
2024/02/08 10:21:17;;;;;;;25.60;9.10;;;5.70;99.90;;;;;;4977383;28;20440;-82
2024/02/08 10:23:59;;;;;;;16.55;8.30;;;5.70;99.90;;;;;;4959809;28;20125;-82
2024/02/08 10:26:38;;;;;;;16.23;6.88;;;5.70;99.90;;;;;;4975319;28;20033;-83
2024/02/08 10:29:14;;;;;;;17.13;7.75;;;5.70;99.90;;;;;;4975941;28;20027;-83
2024/02/08 10:31:40;;;;;;;15.13;7.03;;;5.70;99.90;;;;;;4960856;28;20427;-83
2024/02/08 10:34:09;;;;;;;19.55;8.35;;;5.80;99.90;;;;;;4959113;28;20042;-83
2024/02/08 10:36:39;;;;;;;17.00;7.07;;;5.80;99.90;;;;;;4975158;28;20027;-83
2024/02/08 10:39:08;;;;;;;17.35;7.55;;;5.80;99.90;;;;;;4976786;28;20050;-82
2024/02/08 10:41:44;;;;;;;19.38;7.88;;;5.80;99.90;;;;;;4975291;28;20062;-83
2024/02/08 10:44:17;;;;;;;14.85;7.53;;;5.80;99.90;;;;;;4974970;28;20057;-83
2024/02/08 10:46:46;;;;;;;18.05;8.15;;;5.80;99.90;;;;;;4960232;28;20039;-83
2024/02/08 10:49:12;;;;;;;17.02;7.65;;;5.80;99.90;;;;;;4976226;28;20479;-83
2024/02/08 10:51:43;;;;;;;15.38;7.07;;;5.80;99.90;;;;;;4975168;28;20030;-83
2024/02/08 10:54:15;;;;;;;17.05;7.50;;;5.80;99.90;;;;;;4975167;28;20061;-83
2024/02/08 10:56:47;;;;;;;16.35;7.45;;;5.80;99.90;;;;;;4974685;28;20054;-83
2024/02/08 10:59:14;;;;;;;19.00;8.45;;;5.80;99.90;;;;;;4975539;28;20031;-84
2024/02/08 11:04:30;;;;;;;21.02;8.30;;;5.80;99.90;;;;;;4986882;28;20029;-82
2024/02/08 11:09:41;;;;;;;18.58;7.53;;;5.70;99.90;;;;;;4999427;28;20046;-82
2024/02/08 11:12:09;;;;;;;19.88;8.52;;;5.70;99.90;;;;;;4980579;28;20083;-84
2024/02/08 11:14:41;;;;;;;16.33;8.23;;;5.80;99.90;;;;;;4975206;28;20148;-83
2024/02/08 11:17:20;;;;;;;19.27;8.35;;;5.70;99.90;;;;;;4976243;28;20031;-83
2024/02/08 11:19:56;;;;;;;20.33;7.25;;;5.70;99.90;;;;;;4974441;28;20117;-83
2024/02/08 11:22:39;;;;;;;15.70;7.30;;;5.70;99.90;;;;;;4974172;28;20150;-84
2024/02/08 11:25:19;;;;;;;23.30;8.20;;;5.70;99.90;;;;;;4976266;28;20037;-83
2024/02/08 11:27:49;;;;;;;13.10;6.93;;;5.70;99.90;;;;;;4974681;28;20031;-84
2024/02/08 11:30:33;;;;;;;20.65;7.78;;;5.80;99.90;;;;;;4957808;28;20114;-83
2024/02/08 11:33:04;;;;;;;16.02;8.13;;;5.80;99.90;;;;;;4959682;28;20386;-85
2024/02/08 11:35:35;;;;;;;18.90;8.23;;;5.80;99.90;;;;;;4974224;28;20422;-84
2024/02/08 11:38:16;;;;;;;19.75;8.27;;;5.80;99.90;;;;;;4974474;28;20019;-83
2024/02/08 11:40:45;;;;;;;14.65;7.82;;;5.70;99.90;;;;;;4974830;28;20046;-84
2024/02/08 11:43:19;;;;;;;18.58;8.45;;;5.80;99.90;;;;;;4974498;28;20031;-84
2024/02/08 11:45:56;;;;;;;17.25;7.80;;;5.80;99.90;;;;;;4974506;28;20041;-84
2024/02/08 11:48:26;;;;;;;14.32;7.15;;;5.80;99.90;;;;;;4975383;28;20066;-85
2024/02/08 11:51:00;;;;;;;13.45;7.75;;;5.80;99.90;;;;;;4976140;28;20474;-83
2024/02/08 11:53:31;;;;;;;15.88;8.18;;;5.90;99.90;;;;;;4962089;28;20027;-85
2024/02/08 11:56:08;;;;;;;18.60;8.30;;;6.00;99.90;;;;;;4945929;28;20034;-81
2024/02/08 11:58:41;;;;;;;20.25;8.98;;;6.00;99.90;;;;;;4976839;28;20093;-83
2024/02/08 12:01:09;;;;;;;20.63;8.73;;;6.00;99.90;;;;;;4977267;28;20130;-85
2024/02/08 12:03:41;;;;;;;16.55;8.40;;;6.00;99.90;;;;;;4974930;28;20031;-85
2024/02/08 12:06:28;;;;;;;;;;;5.90;99.90;;;;;;4975849;28;20050;-83
2024/02/08 12:08:59;;;;;;;18.30;8.40;;;5.90;99.90;;;;;;4975524;28;19913;-85
2024/02/08 12:11:34;;;;;;;18.13;8.50;;;5.90;99.90;;;;;;4975050;28;20027;-85
2024/02/08 12:14:06;;;;;;;19.38;9.15;;;5.90;99.90;;;;;;4974052;28;20034;-85
2024/02/08 12:16:33;;;;;;;19.00;8.88;;;5.90;99.90;;;;;;4958194;28;20131;-84
2024/02/08 12:19:05;;;;;;;21.10;8.57;;;5.80;99.90;;;;;;4958215;28;20035;-82
2024/02/08 12:21:32;;;;;;;20.45;8.80;;;5.90;99.90;;;;;;4975779;28;20027;-85
2024/02/08 12:24:03;;;;;;;15.20;7.25;;;5.90;99.90;;;;;;4975030;28;20113;-85
2024/02/08 12:26:32;;;;;;;19.48;9.10;;;5.90;99.90;;;;;;4979240;28;20034;-84
2024/02/08 12:29:03;;;;;;;20.30;8.73;;;5.90;99.90;;;;;;4998370;28;20033;-84
2024/02/08 12:31:32;;;;;;;19.38;9.65;;;5.80;99.90;;;;;;4998537;28;20011;-84
2024/02/08 12:33:59;;;;;;;18.83;9.45;;;5.80;99.90;;;;;;4997759;28;20023;-83
2024/02/08 12:36:31;;;;;;;16.52;8.10;;;5.70;99.90;;;;;;4963327;28;20485;-86
2024/02/08 12:39:00;;;;;;;19.63;9.35;;;5.70;99.90;;;;;;4974905;28;20097;-84
2024/02/08 12:41:29;;;;;;;21.42;8.75;;;5.60;99.90;;;;;;4958170;28;20059;-85
2024/02/08 12:43:57;;;;;;;25.35;9.15;;;5.60;99.90;;;;;;4974457;28;20398;-84
2024/02/08 12:46:23;;;;;;;18.83;9.32;;;5.60;99.90;;;;;;4975034;28;20030;-82
2024/02/08 12:48:49;;;;;;;20.15;9.77;;;5.50;99.90;;;;;;4942432;28;20035;-85
2024/02/08 12:51:23;;;;;;;18.38;9.35;;;5.60;99.90;;;;;;4974106;28;20463;-85
2024/02/08 12:54:14;;;;;;;20.38;9.07;;;5.50;99.90;;;;;;4974959;28;20026;-84
2024/02/08 12:56:39;;;;;;;24.25;9.23;;;5.50;99.90;;;;;;4974844;28;20031;-84
2024/02/08 12:59:05;;;;;;;20.45;8.75;;;5.40;99.90;;;;;;4942114;28;20041;-86
2024/02/08 13:01:44;;;;;;;16.75;7.18;;;5.40;99.90;;;;;;4983478;28;20058;-84
2024/02/08 13:04:16;;;;;;;15.25;8.02;;;5.40;99.90;;;;;;4978049;28;20422;-84
2024/02/08 13:06:41;;;;;;;18.20;8.02;;;5.30;99.90;;;;;;4998003;28;20034;-85
2024/02/08 13:09:25;;;;;;;18.98;7.63;;;5.20;99.90;;;;;;4980490;28;20038;-84
2024/02/08 13:12:14;;;;;;;14.85;7.13;;;5.20;99.90;;;;;;4966090;28;20117;-84
2024/02/08 13:14:56;;;;;;;19.42;9.02;;;5.20;99.90;;;;;;4979869;28;20031;-84
2024/02/08 13:17:26;;;;;;;16.25;8.20;;;5.30;99.90;;;;;;4980010;28;20040;-84
2024/02/08 13:19:55;;;;;;;20.02;9.20;;;5.20;99.90;;;;;;4964545;28;20034;-85
2024/02/08 13:22:25;;;;;;;18.00;8.32;;;5.20;99.90;;;;;;4964081;28;20026;-85
2024/02/08 13:24:54;;;;;;;15.52;7.78;;;5.10;99.90;;;;;;4980506;28;20117;-85
2024/02/08 13:27:29;;;;;;;15.07;6.85;;;5.10;99.90;;;;;;4997191;28;20058;-83
2024/02/08 13:29:56;;;;;;;15.07;7.28;;;5.00;99.90;;;;;;4979618;28;20026;-85
2024/02/08 13:32:30;;;;;;;18.73;7.28;;;4.90;99.90;;;;;;4979712;28;20023;-85
2024/02/08 13:35:00;;;;;;;12.73;6.97;;;4.90;99.90;;;;;;4997246;28;20088;-85
2024/02/08 13:37:29;;;;;;;11.60;5.55;;;4.80;99.90;;;;;;4964099;28;20125;-84
2024/02/08 13:40:04;;;;;;;16.55;6.00;;;4.80;99.90;;;;;;4964134;28;20061;-85
2024/02/08 13:42:30;;;;;;;14.80;6.00;;;4.70;99.90;;;;;;4997415;28;20533;-85
2024/02/08 13:44:57;;;;;;;15.23;6.03;;;4.80;99.90;;;;;;4997682;28;20022;-84
2024/02/08 13:47:27;;;;;;;14.43;5.53;;;4.80;99.90;;;;;;4983889;28;20441;-85
2024/02/08 13:49:57;;;;;;;9.00;5.13;;;4.70;99.90;;;;;;5003933;28;20041;-84
2024/02/08 13:52:27;;;;;;;13.25;5.40;;;4.80;99.90;;;;;;5003515;28;20069;-84
2024/02/08 13:54:53;;;;;;;9.55;4.90;;;4.70;99.90;;;;;;4987498;28;20021;-84
2024/02/08 13:57:19;;;;;;;8.82;4.85;;;4.70;99.90;;;;;;4988866;28;20039;-85
2024/02/08 13:59:51;;;;;;;9.30;5.13;;;4.70;99.90;;;;;;4980150;28;20034;-84
2024/02/08 14:02:18;;;;;;;11.27;4.38;;;4.80;99.90;;;;;;4963743;28;20142;-84
2024/02/08 14:04:50;;;;;;;9.43;4.22;;;4.80;99.90;;;;;;4996966;28;20023;-84
2024/02/08 14:07:25;;;;;;;8.52;4.07;;;4.80;99.90;;;;;;4979707;28;20034;-84
2024/02/08 14:09:58;;;;;;;6.88;3.78;;;4.70;99.90;;;;;;4979714;28;20122;-85
2024/02/08 14:12:28;;;;;;;9.52;3.92;;;4.70;99.90;;;;;;4979135;28;20026;-84
2024/02/08 14:14:55;;;;;;;7.30;3.33;;;4.70;99.90;;;;;;4946533;28;20543;-85
2024/02/08 14:17:27;;;;;;;7.15;3.45;;;4.70;99.90;;;;;;4979085;28;20386;-85
2024/02/08 14:19:59;;;;;;;7.03;3.28;;;4.60;99.90;;;;;;4979128;28;20038;-85
2024/02/08 14:22:27;;;;;;;6.38;2.90;;;4.60;99.90;;;;;;4979293;28;20053;-85
2024/02/08 14:24:53;;;;;;;6.88;3.15;;;4.60;99.90;;;;;;4964245;28;20027;-84
2024/02/08 14:27:23;;;;;;;7.45;3.35;;;4.70;99.90;;;;;;4964279;28;20030;-85
2024/02/08 14:29:50;;;;;;;5.90;3.03;;;4.60;99.90;;;;;;4996202;28;20048;-82
2024/02/08 14:32:16;;;;;;;5.40;2.72;;;4.70;99.90;;;;;;4980475;28;20034;-84
2024/02/08 14:34:43;;;;;;;8.13;4.15;;;4.70;99.90;;;;;;4963024;28;20077;-85
2024/02/08 14:37:09;;;;;;;5.90;3.00;;;4.80;99.90;;;;;;4996195;28;20437;-85
2024/02/08 14:39:36;;;;;;;7.15;2.90;;;4.70;99.90;;;;;;4982280;28;20037;-84
2024/02/08 14:42:12;;;;;;;6.88;3.13;;;4.70;99.90;;;;;;4983004;28;20073;-85
2024/02/08 14:44:44;;;;;;;7.18;3.05;;;4.70;99.90;;;;;;4998724;28;20515;-85
2024/02/08 14:47:30;;;;;;;10.27;3.75;;;4.70;99.90;;;;;;4997974;28;20029;-85
2024/02/08 14:49:59;;;;;;;6.50;3.28;;;4.60;99.90;;;;;;4978764;28;20447;-85
2024/02/08 14:52:27;;;;;;;8.07;3.38;;;4.60;99.90;;;;;;4995849;28;20061;-85
2024/02/08 14:55:09;;;;;;;8.38;3.33;;;4.50;99.90;;;;;;4978585;28;20471;-85
2024/02/08 14:57:45;;;;;;;9.25;3.67;;;4.60;99.90;;;;;;4978780;28;20037;-86
2024/02/08 15:03:07;;;;;;;8.45;3.40;;;4.50;99.90;;;;;;4981305;28;20101;-85
2024/02/08 15:05:46;;;;;;;8.73;4.10;;;4.40;99.90;;;;;;4965392;28;20088;-85
2024/02/08 15:11:25;;;;;;;9.45;4.43;;;4.30;99.90;;;;;;5019228;28;20015;-82
2024/02/08 15:13:55;;;;;;;7.07;4.00;;;4.30;99.90;;;;;;5006512;28;20057;-83
2024/02/08 15:16:30;;;;;;;7.57;3.67;;;4.30;99.90;;;;;;4975776;28;20049;-83
2024/02/08 15:18:56;;;;;;;7.35;3.88;;;4.30;99.90;;;;;;4963553;28;20031;-84
2024/02/08 15:21:34;;;;;;;7.78;4.38;;;4.20;99.90;;;;;;4979075;28;20428;-85
2024/02/08 15:26:49;;;;;;;6.45;3.58;;;4.30;99.90;;;;;;4995343;28;20034;-84
2024/02/08 15:29:36;;;;;;;7.22;3.33;;;4.30;99.90;;;;;;4978179;28;20038;-84